If you wish to contribute or participate in the discussions about articles you are invited to join SKYbrary as a registered user

 Actions

Marrakech-Menara Airport

From SKYbrary Wiki

GMMX
Airport
ICAO: GMMX – IATA: RAK
Summary
Name Marrakech-Menara Airport
Region Africa
Territory Morocco MA.gif
Location Marrakesh, Marrakesh-Safi region
Serving Marrakesh
Elevation 470.916 m <br />1,545 ft470.916 m <br />
Coordinates 31° 36' 24.98" N, 8° 2' 11.00" W
Runways
Designator Length Width Surface ROPS
10/28 3100 m10,170.604 ft <br /> 45 m147.638 ft <br /> ASP yes/yes


METAR
Observation GMMX 270630Z 25004KT 210V280 6000 BKN016 14/12 Q1017 NOSIG
Station Marrakech
Date/Time 27 October 2021 06:30:00
Wind direction 250°
Wind speed 04 kts
Lowest cloud amount broken clouds
Temperature 14°C
Dew point 12°C
Humidity 87%
QNH 1017 hPa
Weather condition n/a

Marrakesh Menara Airport is an international airport serving Marrakesh, the capital city of the Marrakesh-Safi region in Morocco.

Climatology

Warm semi-arid climate (Köppen climate classification BSh)

Maps

Terrain

Loading map...

Airport Layout

Loading map...


Accidents & Serious Incidents at or in vicinity of GMMX

None on SKYbrary